Stargard Szczecinski, Poland
Current Conditions -  °F | °C
As of 3:30 PM on Saturday 25 Oct 2014 (Local Time) from EPSC Reporting Station
Haze Haze  
Wind Chill: 32°   Ceiling: 700
Heat Index: 39°   Visibility: 3mi
Dew Point: 37°   Wind: 10mph
Humidity: 93%   Direction: 150°SSE
Pressure: 30.15"   Gusts: NA
Location:  53.34°N, 15.02°E
Report Text: EPSC 251330Z 15009KT 130V190 5000 BR BKN007 04/03 Q1021
Loading
Personal Weather Stations






























Interactive Weather Map
Tropical Storm Tracking
New forecast layout! Learn more

10-Day Weather Forecast

Advertisements
Track Severe Weather on mobile